Flight Track Log - Related Links

Times and Time Zones

All times are in EDT time to prevent confusion due to time zone crossing. See the CHQ5338 flight status page for this flight to view local times or setup timezone preferences in your user account.

Time Position Orientation Groundspeed Altitude Reporting Facility
EDT Latitude Longitude Course Direction KTS MPH feet Rate Location/Type
Tue 08:26:14 PM 41.9667 -87.9500 270° West 153 176 2,000  Level Chicago TRACON
Tue 08:27:14 PM 41.9667 -88.0167 270° West 193 222 4,300 2,350 Climbing Chicago TRACON
Tue 08:28:00 PM 41.8850 -88.3069 257° West  Level FlightAware Approximate
Tue 08:28:14 PM 41.9667 -88.0833 270° West 209 241 6,700  Level Chicago TRACON
Tue 08:29:00 PM 41.8601 -88.4454 253° West  Level FlightAware Approximate
Tue 08:29:02 PM 41.9611 -88.1542 264° West 223 257 8,300  Level Chicago Center
Tue 08:30:00 PM 41.8287 -88.5816 253° West  Level FlightAware Approximate
Tue 08:30:04 PM 41.9436 -88.2461 256° West 254 292 10,400  Level Chicago Center
Tue 08:31:00 PM 41.8000 -88.7180 270° West  Level FlightAware Approximate
Tue 08:31:06 PM 41.9153 -88.3558 251° West 291 335 11,700  Level Chicago Center
Tue 08:32:08 PM 41.8861 -88.4675 251° West 312 359 13,200 1,742 Climbing Chicago Center
Tue 08:33:10 PM 41.8550 -88.5872 251° West 315 362 15,300 1,951 Climbing Chicago Center
Tue 08:34:11 PM 41.8267 -88.6964 251° West 314 361 17,200 1,707 Climbing Chicago Center
Tue 08:35:13 PM 41.7978 -88.8042 250° West 308 354 18,800 1,742 Climbing Chicago Center
Tue 08:36:15 PM 41.7825 -88.9122 259° West 297 342 20,800 1,887 Climbing Chicago Center
Tue 08:37:17 PM 41.7700 -89.0175 261° West 293 337 22,700 1,790 Climbing Chicago Center
Tue 08:38:19 PM 41.7569 -89.1206 260° West 288 331 24,500 1,645 Climbing Chicago Center
Tue 08:39:21 PM 41.7311 -89.2253 252° West 304 350 26,100 1,694 Climbing Chicago Center
Tue 08:40:23 PM 41.6850 -89.3425 242° Southwest 299 344 28,000 1,500 Climbing Chicago Center
Tue 08:41:25 PM 41.6469 -89.4450 244° Southwest 306 352 29,200 1,210 Climbing Chicago Center
Tue 08:42:27 PM 41.6083 -89.5481 243° Southwest 308 354 30,500 1,258 Climbing Chicago Center
Tue 08:43:29 PM 41.5711 -89.6503 244° Southwest 313 360 31,800 1,113 Climbing Chicago Center
Tue 08:44:31 PM 41.5317 -89.7556 243° Southwest 317 365 32,800 1,016 Climbing Chicago Center
Tue 08:45:33 PM 41.4783 -89.8842 241° Southwest 329 379 33,900 581 Climbing Chicago Center
Tue 08:46:35 PM 41.4306 -89.9983 241° Southwest 347 399 34,000 48 Climbing Chicago Center
Tue 08:47:37 PM 41.3803 -90.1228 242° Southwest 378 435 34,000  Level Chicago Center
Tue 08:48:39 PM 41.3250 -90.2525 240° Southwest 402 463 34,000  Level Chicago Center
Tue 08:49:41 PM 41.2711 -90.3800 241° Southwest 401 461 34,000  Level Chicago Center
Tue 08:50:42 PM 41.2164 -90.5097 241° Southwest 406 467 34,000  Level Chicago Center
Tue 08:51:44 PM 41.1347 -90.6500 232° Southwest 403 464 34,000  Level Chicago Center
Tue 08:52:46 PM 41.0631 -90.7664 231° Southwest 406 467 34,000  Level Chicago Center
Tue 08:53:48 PM 40.9919 -90.8808 231° Southwest 405 466 34,000  Level Chicago Center
Tue 08:54:50 PM 40.9331 -91.0022 237° Southwest 394 453 34,000  Level Chicago Center
Tue 08:55:52 PM 40.8819 -91.1278 242° Southwest 391 450 34,000  Level Chicago Center
Tue 08:56:54 PM 40.8303 -91.2544 242° Southwest 392 451 34,000  Level Chicago Center
Tue 08:57:56 PM 40.7747 -91.3858 241° Southwest 393 452 34,000  Level Chicago Center
Tue 08:58:58 PM 40.7119 -91.5356 241° Southwest 393 452 34,000  Level Chicago Center
Tue 09:00:00 PM 40.6603 -91.6583 241° Southwest 387 445 34,000  Level Chicago Center
Tue 09:01:02 PM 40.6075 -91.7803 240° Southwest 387 445 34,000  Level Chicago Center
Tue 09:01:45 PM 40.5669 -91.8772 241° Southwest 389 448 34,000  Level Kansas City Center
Tue 09:02:49 PM 40.5158 -91.9986 241° Southwest 386 444 34,000  Level Kansas City Center
Tue 09:03:51 PM 40.4631 -92.1192 240° Southwest 386 444 34,000  Level Kansas City Center
Tue 09:04:51 PM 40.4108 -92.2397 240° Southwest 385 443 34,000  Level Kansas City Center
Tue 09:05:53 PM 40.3586 -92.3611 241° Southwest 385 443 34,000  Level Kansas City Center
Tue 09:06:56 PM 40.2969 -92.5014 240° Southwest 381 438 34,000  Level Kansas City Center
Tue 09:07:57 PM 40.2475 -92.6156 240° Southwest 381 438 34,000  Level Kansas City Center
Tue 09:09:00 PM 40.1961 -92.7317 240° Southwest 381 438 34,000  Level Kansas City Center
Tue 09:10:01 PM 40.1364 -92.8653 240° Southwest 381 438 34,000  Level Kansas City Center
Tue 09:11:02 PM 40.0853 -92.9794 240° Southwest 381 438 34,000  Level Kansas City Center
Tue 09:12:02 PM 40.0286 -93.1103 241° Southwest 381 438 34,000  Level Kansas City Center
Tue 09:13:04 PM 39.9747 -93.2281 239° Southwest 381 438 34,000  Level Kansas City Center
Tue 09:14:07 PM 39.9208 -93.3464 239° Southwest 381 438 34,000  Level Kansas City Center
Tue 09:15:08 PM 39.8692 -93.4647 240° Southwest 381 438 34,000  Level Kansas City Center
Tue 09:16:09 PM 39.8131 -93.5828 238° Southwest 383 441 34,000  Level Kansas City Center
Tue 09:17:13 PM 39.7503 -93.7267 240° Southwest 383 441 34,000  Level Kansas City Center
Tue 09:18:14 PM 39.7019 -93.8361 240° Southwest 380 437 34,000  Level Kansas City Center
Tue 09:19:14 PM 39.6411 -93.9692 239° Southwest 380 437 34,000  Level Kansas City Center
Tue 09:20:18 PM 39.5894 -94.0822 239° Southwest 381 438 34,000  Level Kansas City Center
Tue 09:21:18 PM 39.5372 -94.1942 239° Southwest 381 438 34,000  Level Kansas City Center
Tue 09:22:19 PM 39.4772 -94.3258 239° Southwest 381 438 34,000  Level Kansas City Center
Tue 09:23:20 PM 39.4247 -94.4392 239° Southwest 381 438 34,000  Level Kansas City Center
Tue 09:24:23 PM 39.3639 -94.5706 239° Southwest 381 438 34,000  Level Kansas City Center
Tue 09:25:24 PM 39.3106 -94.6819 238° Southwest 381 438 34,000  Level Kansas City Center
Tue 09:26:25 PM 39.2578 -94.7936 239° Southwest 381 438 34,000  Level Kansas City Center
Tue 09:27:27 PM 39.1958 -94.9264 239° Southwest 382 440 34,000  Level Kansas City Center
Tue 09:28:28 PM 39.1419 -95.0403 239° Southwest 383 441 34,000 -98 Level Kansas City Center
Tue 09:29:30 PM 39.0819 -95.1683 239° Southwest 388 447 33,800 -590 Descending Kansas City Center
Tue 09:30:30 PM 39.0228 -95.2931 239° Southwest 390 449 32,800 -976 Descending Kansas City Center
Tue 09:31:33 PM 38.9669 -95.4058 238° Southwest 390 449 31,800 -1,056 Descending Kansas City Center
Tue 09:32:35 PM 38.9042 -95.5386 239° Southwest 389 448 30,600 -1,024 Descending Kansas City Center
Tue 09:33:36 PM 38.8492 -95.6500 238° Southwest 387 445 29,700 -942 Descending Kansas City Center
Tue 09:34:36 PM 38.7953 -95.7619 238° Southwest 385 443 28,700 -1,033 Descending Kansas City Center
Tue 09:35:38 PM 38.7306 -95.8969 238° Southwest 395 455 27,600 -1,024 Descending Kansas City Center
Tue 09:36:39 PM 38.6728 -96.0153 238° Southwest 404 465 26,600 -1,008 Descending Kansas City Center
Tue 09:37:43 PM 38.6047 -96.1544 238° Southwest 410 472 25,500 -1,016 Descending Kansas City Center
Tue 09:38:43 PM 38.5464 -96.2717 238° Southwest 410 472 24,500 -1,091 Descending Kansas City Center
Tue 09:39:44 PM 38.4900 -96.3861 238° Southwest 403 464 23,300 -1,306 Descending Kansas City Center
Tue 09:40:47 PM 38.4303 -96.5061 238° Southwest 391 450 21,800 -1,548 Descending Kansas City Center
Tue 09:41:48 PM 38.3758 -96.6158 238° Southwest 371 427 20,100 -1,721 Descending Kansas City Center
Tue 09:42:49 PM 38.3222 -96.7219 237° Southwest 359 413 18,300 -1,756 Descending Kansas City Center
Tue 09:43:10 PM 38.2961 -96.7733 237° Southwest 353 406 17,700 -1,548 Descending Kansas City Center
Tue 09:43:51 PM 38.2694 -96.8283 238° Southwest 357 411 16,700 -2,034 Descending Kansas City Center
Tue 09:44:09 PM 38.2419 -96.8811 236° Southwest 356 410 15,700 -2,500 Descending Kansas City Center
Tue 09:44:51 PM 38.1900 -96.9375 220° Southwest 355 409 14,200 -2,000 Descending Kansas City Center
Tue 09:45:09 PM 38.1656 -96.9575 213° Southwest 353 406 13,700 -1,594 Descending Kansas City Center
Tue 09:45:55 PM 38.1136 -97.0075 217° Southwest 340 391 12,500 -1,574 Descending Kansas City Center
Tue 09:46:10 PM 38.0925 -97.0250 213° Southwest 321 369 12,100 -1,355 Descending Kansas City Center
Tue 09:46:57 PM 38.0464 -97.0683 217° Southwest 300 345 11,100 -1,393 Descending Kansas City Center
Tue 09:47:06 PM 38.0347 -97.0794 217° Southwest 282 325 10,800 -1,600 Descending Kansas City Center
Tue 09:47:57 PM 37.9867 -97.1258 217° Southwest 268 308 9,500 -1,600 Descending Kansas City Center
Tue 09:48:06 PM 37.9753 -97.1369 218° Southwest 258 297 9,200 -1,800 Descending Kansas City Center
Tue 09:48:57 PM 37.9317 -97.1806 218° Southwest 260 299 7,700 -1,750 Descending Kansas City Center
Tue 09:49:18 PM 37.9086 -97.2058 221° Southwest 252 290 7,100 -1,313 Descending Kansas City Center
Tue 09:50:01 PM 37.8800 -97.2356 219° Southwest 243 280 6,300 -1,475 Descending Kansas City Center
Tue 09:50:19 PM 37.8611 -97.2558 220° Southwest 227 261 5,600 -1,672 Descending Kansas City Center
Tue 09:51:02 PM 37.8375 -97.2881 227° Southwest 218 251 4,600 -1,645 Descending Kansas City Center
Tue 09:51:21 PM 37.8206 -97.3125 229° Southwest 209 241 3,900 -1,475 Descending Kansas City Center
Tue 09:52:03 PM 37.7956 -97.3439 225° Southwest 217 250 3,100 -818 Descending Kansas City Center
Tue 09:52:27 PM 37.7733 -97.3675 220° Southwest 196 226 3,000 -97 Descending Kansas City Center
Tue 09:53:05 PM 37.7528 -97.3772 201° Southwest 199 229 3,000 -113 Level Kansas City Center
Tue 09:53:20 PM 37.7311 -97.3872 200° South 165 190 2,900 -590 Descending Kansas City Center
Tue 09:54:06 PM 37.7042 -97.3986 198° South 172 198 2,400 -706 Descending Kansas City Center
Tue 09:54:28 PM 37.6928 -97.4039 200° South 128 147 2,100 -787 Descending Kansas City Center
Tue 09:55:07 PM 37.6694 -97.4136 198° South 150 173 1,600 -360 Descending Kansas City Center
Tue 09:56:08 PM 37.6347 -97.4306 201° Southwest 147 169 1,500 -98 Descending Kansas City Center

Login

Don't have an account? Register now (free) for customized features, flight alerts, and more!